Sand Coulee, MT (59472)

2:13 PM MDT on September 23, 2014 (GMT -0600)
Malmstrom AFB | Change Station
CLOSE
Current Station
Airport
Location: Malmstrom AFB,
Elevation: 3527 ft
Nearby Weather Stations

Elev 3527 ft 47.50 °N, 111.19 °W | Updated 14 minutes ago

Clear
Clear
79 °F
Feels Like 79 °F
N
13
Wind Variable Wind from West
Gusts 20 mph

Today
High -- | Low -- °F
--% Chance of Precip.
Yesterday
High -- | Low -- °F
Precip. -- in
7:12 AM 7:20 PM
Waning Crescent, 0% visible
Pressure 29.99 in
Visibility 10.0 miles
Clouds Clear
Dew Point 45 °F
Humidity 30%
Rainfall 0.00 in
Snow Depth 0 in , 1 in , 0 in
UV 6 out of 12
Pollen 6.70 out of 12
Air Quality Not available.
Flu Activity Not available.
SPECI KGFA 231959Z AUTO 26011G17KT 10SM CLR 26/07 A2999 RMK AO2 WSHFT 56

More Conditions Fewer Conditions

Pressure 29.99 in
Visibility 10.0 miles
Clouds Clear
Dew Point 45 °F
Humidity 30%
Rainfall 0.00 in
Snow Depth 0 in , 1 in , 0 in
UV 6 out of 12
Pollen 6.70 out of 12
Air Quality Not available.
Flu Activity Not available.
SPECI KGFA 231959Z AUTO 26011G17KT 10SM CLR 26/07 A2999 RMK AO2 WSHFT 56

More Conditions Fewer Conditions

10-Day Weather Forecast

Almanac

Astronomy

Sep. 23, 2014 Rise Set
Actual Time 7:12 AM MDT 7:20 PM MDT
Civil Twilight 6:42 AM MDT 7:50 PM MDT
Nautical Twilight 6:06 AM MDT 8:26 PM MDT
Astronomical Twilight 5:29 AM MDT 9:03 PM MDT
Moon 6:40 AM MDT 6:59 PM MDT
Length of Visible Light 13h 08m
Length of Day
12h 07m
Tomorrow will be 3m 23s shorter.
Waning Crescent, 0% of the Moon is Illuminated
Today
Waning Crescent
Sep 24
New
Oct 1
First Quarter
Oct 8
Full
Oct 15
Last Quarter

Today's Extremes

State Highs State Lows

Community

WunderPhotos

Upload Photos

1,755,786 photos uploaded!

WunderBlogs® & News

By Dr. Jeff Masters
Director of Meteorology, Weather Underground
By Kari Strenfel
Meteorologist, Weather Underground
By Christopher C. Burt
Weather Historian, Weather Underground
September 23, 2014
September 23, 2014
September 23, 2014

Nearby

Snow Depth

Station Depth Elevation
Cole Creek 0 in 7850 ft
Porcupine 1 in 6500 ft
Dupuyer Creek 0 in 5750 ft
Black Bear 1 in 8150 ft
Flattop Mountain 0 in 6300 ft

Earthquake Activity

City Distance Mag. Time & Date
No recent earthquake activity has been reported nearby.
Minimum magnitude displayed is 2.5.

Coastal Water Temperatures

Place Temperature
No Stations Reporting

Nearby Weather Stations